createdAt,value
2022-10-22T00:01:14.942Z,6.30
2022-10-22T00:03:41.564Z,3.85
2022-10-22T00:06:08.186Z,5.65
2022-10-22T00:08:35.249Z,4.38
2022-10-22T00:11:01.905Z,7.45
2022-10-22T00:13:28.754Z,5.40
2022-10-22T00:15:55.375Z,5.88
2022-10-22T00:18:21.968Z,4.22
2022-10-22T00:20:48.584Z,4.85
2022-10-22T00:23:15.203Z,3.95
2022-10-22T00:25:41.815Z,3.70
2022-10-22T00:28:08.435Z,3.88
2022-10-22T00:30:35.349Z,5.38
2022-10-22T00:33:01.955Z,2.85
2022-10-22T00:35:28.577Z,4.65
2022-10-22T00:37:55.206Z,4.03
2022-10-22T00:40:21.809Z,4.25
2022-10-22T00:42:48.654Z,4.38
2022-10-22T00:45:15.278Z,3.53
2022-10-22T00:47:41.929Z,4.75
2022-10-22T00:50:08.562Z,4.20
2022-10-22T00:52:35.217Z,4.20
2022-10-22T00:55:01.836Z,2.88
2022-10-22T00:57:28.450Z,5.72
2022-10-22T00:59:55.569Z,2.83
2022-10-22T01:02:22.183Z,2.93
2022-10-22T01:04:48.821Z,3.35
2022-10-22T01:07:15.430Z,5.70
2022-10-22T01:09:42.048Z,3.50
2022-10-22T01:12:08.640Z,2.95
2022-10-22T01:14:35.329Z,4.13
2022-10-22T01:17:01.964Z,3.92
2022-10-22T01:19:28.596Z,3.20
2022-10-22T01:21:55.218Z,3.35
2022-10-22T01:24:21.826Z,3.47
2022-10-22T01:26:48.445Z,2.07
2022-10-22T01:29:15.086Z,4.07
2022-10-22T01:31:41.694Z,3.67
2022-10-22T01:34:08.329Z,3.72
2022-10-22T01:36:35.496Z,2.45
2022-10-22T01:39:02.123Z,6.33
2022-10-22T01:41:28.739Z,3.22
2022-10-22T01:43:55.341Z,4.20
2022-10-22T01:46:21.943Z,3.40
2022-10-22T01:48:48.527Z,3.15
2022-10-22T01:51:15.362Z,3.70
2022-10-22T01:53:42.051Z,5.05
2022-10-22T01:56:09.034Z,4.18
2022-10-22T01:58:35.630Z,2.88
2022-10-22T02:01:02.276Z,4.38
2022-10-22T02:03:28.934Z,2.13
2022-10-22T02:05:55.768Z,2.55
2022-10-22T02:08:22.389Z,4.78
2022-10-22T02:10:48.991Z,4.28
2022-10-22T02:13:15.609Z,3.80
2022-10-22T02:15:42.205Z,1.80
2022-10-22T02:18:08.809Z,3.97
2022-10-22T02:20:35.404Z,2.85
2022-10-22T02:23:02.015Z,2.92
2022-10-22T02:25:28.849Z,3.85
2022-10-22T02:27:55.649Z,2.80
2022-10-22T02:30:22.459Z,3.05
2022-10-22T02:32:49.072Z,3.35
2022-10-22T02:35:15.883Z,3.08
2022-10-22T02:37:42.468Z,1.85
2022-10-22T02:40:09.061Z,2.40
2022-10-22T02:42:35.648Z,2.85
2022-10-22T02:45:02.245Z,2.33
2022-10-22T02:50:13.397Z,1.88
2022-10-22T02:52:40.218Z,2.97
2022-10-22T02:55:07.288Z,2.42
2022-10-22T03:00:18.287Z,2.40
2022-10-22T03:02:44.904Z,2.10
2022-10-22T03:05:11.744Z,2.80
2022-10-22T03:07:38.602Z,3.70
2022-10-22T03:10:05.458Z,1.85
2022-10-22T03:12:32.053Z,3.42
2022-10-22T03:14:58.679Z,2.38
2022-10-22T03:17:25.505Z,2.40
2022-10-22T03:19:52.092Z,3.90
2022-10-22T03:22:18.710Z,2.50
2022-10-22T03:24:45.326Z,3.28
2022-10-22T03:27:11.924Z,2.75
2022-10-22T03:29:38.526Z,1.90
2022-10-22T03:32:05.140Z,2.65
2022-10-22T03:34:31.977Z,2.88
2022-10-22T03:36:58.588Z,3.30
2022-10-22T03:39:25.210Z,5.05
2022-10-22T03:41:51.834Z,2.93
2022-10-22T03:44:18.433Z,5.22
2022-10-22T03:46:45.288Z,1.55
2022-10-22T03:49:11.886Z,1.92
2022-10-22T03:51:38.473Z,3.15
2022-10-22T03:54:05.085Z,3.07
2022-10-22T03:56:31.916Z,2.17
2022-10-22T03:58:58.525Z,2.15
2022-10-22T04:01:25.180Z,3.30
2022-10-22T04:03:51.817Z,1.77
2022-10-22T04:06:18.434Z,2.17
2022-10-22T04:08:45.341Z,2.35
2022-10-22T04:11:11.985Z,2.75
2022-10-22T04:13:38.608Z,2.85
2022-10-22T04:16:05.210Z,3.70
2022-10-22T04:18:31.821Z,1.57
2022-10-22T04:20:58.641Z,2.08
2022-10-22T04:23:25.227Z,2.20
2022-10-22T04:25:51.846Z,4.10
2022-10-22T04:28:18.464Z,2.65
2022-10-22T04:30:45.057Z,2.90
2022-10-22T04:33:11.883Z,4.05
2022-10-22T04:35:38.473Z,4.15
2022-10-22T04:38:05.062Z,2.90
2022-10-22T04:40:31.657Z,1.58
2022-10-22T04:42:58.259Z,3.10
2022-10-22T04:45:24.877Z,3.53
2022-10-22T04:47:51.492Z,2.88
2022-10-22T04:50:18.346Z,3.63
2022-10-22T04:52:45.177Z,7.00
2022-10-22T04:55:11.768Z,4.00
2022-10-22T04:57:38.971Z,3.22
2022-10-22T05:00:05.802Z,3.70
2022-10-22T05:02:32.419Z,2.25
2022-10-22T05:04:59.026Z,4.35
2022-10-22T05:07:25.858Z,2.90
2022-10-22T05:09:52.466Z,5.45
2022-10-22T05:12:19.298Z,2.47
2022-10-22T05:14:45.892Z,4.00
2022-10-22T05:17:12.505Z,4.28
2022-10-22T05:19:39.119Z,3.70
2022-10-22T05:22:05.716Z,4.80
2022-10-22T05:24:32.328Z,3.30
2022-10-22T05:26:58.964Z,8.75
2022-10-22T05:29:25.791Z,4.05
2022-10-22T05:31:52.417Z,3.33
2022-10-22T05:34:19.009Z,4.25
2022-10-22T05:36:45.641Z,2.58
2022-10-22T05:39:12.478Z,3.67
2022-10-22T05:41:39.075Z,1.70
2022-10-22T05:44:05.676Z,3.40
2022-10-22T05:46:32.274Z,4.43
2022-10-22T05:48:59.117Z,3.75
2022-10-22T05:51:25.733Z,4.63
2022-10-22T05:53:52.357Z,1.95
2022-10-22T05:56:19.082Z,2.80
2022-10-22T05:58:45.917Z,3.97
2022-10-22T06:01:12.704Z,2.83
2022-10-22T06:03:39.461Z,1.88
2022-10-22T06:06:06.329Z,2.72
2022-10-22T06:08:33.242Z,3.23
2022-10-22T06:11:00.099Z,5.10
2022-10-22T06:13:26.800Z,4.32
2022-10-22T06:15:53.653Z,5.85
2022-10-22T06:18:20.278Z,5.72
2022-10-22T06:20:46.891Z,2.73
2022-10-22T06:23:13.484Z,5.88
2022-10-22T06:25:40.099Z,8.73
2022-10-22T06:28:06.707Z,5.45
2022-10-22T06:30:33.311Z,8.57
2022-10-22T06:33:00.150Z,12.10
2022-10-22T06:35:26.757Z,10.73
2022-10-22T06:37:53.362Z,12.13
2022-10-22T06:40:19.980Z,5.85
2022-10-22T06:42:46.797Z,7.70
2022-10-22T06:45:13.487Z,8.53
2022-10-22T06:47:40.532Z,8.68
2022-10-22T06:50:07.253Z,13.50
2022-10-22T06:52:34.101Z,9.90
2022-10-22T06:55:00.701Z,9.38
2022-10-22T06:57:27.293Z,9.27
2022-10-22T06:59:53.895Z,15.90
2022-10-22T07:02:20.510Z,9.65
2022-10-22T07:04:47.141Z,13.15
2022-10-22T07:07:13.795Z,9.00
2022-10-22T07:09:40.635Z,11.00
2022-10-22T07:12:07.252Z,11.30
2022-10-22T07:14:33.860Z,6.93
2022-10-22T07:17:00.477Z,9.85
2022-10-22T07:19:27.097Z,8.32
2022-10-22T07:21:53.721Z,7.10
2022-10-22T07:24:20.345Z,10.10
2022-10-22T07:26:47.191Z,11.32
2022-10-22T07:29:14.150Z,11.02
2022-10-22T07:31:40.985Z,8.88
2022-10-22T07:34:07.644Z,8.43
2022-10-22T07:36:34.309Z,13.18
2022-10-22T07:39:01.157Z,11.88
2022-10-22T07:41:27.781Z,13.23
2022-10-22T07:43:54.400Z,16.48
2022-10-22T07:46:20.995Z,7.17
2022-10-22T07:48:47.809Z,11.02
2022-10-22T07:51:14.400Z,6.90
2022-10-22T07:53:41.008Z,6.78
2022-10-22T07:56:07.606Z,11.88
2022-10-22T07:58:34.426Z,10.77
2022-10-22T08:01:01.110Z,9.68
2022-10-22T08:03:27.781Z,9.55
2022-10-22T08:05:54.405Z,9.98
2022-10-22T08:08:21.026Z,7.82
2022-10-22T08:10:47.861Z,8.00
2022-10-22T08:13:14.484Z,8.48
2022-10-22T08:15:41.133Z,8.68
2022-10-22T08:18:07.992Z,7.35
2022-10-22T08:20:34.594Z,10.07
2022-10-22T08:23:01.186Z,12.80
2022-10-22T08:25:27.796Z,8.45
2022-10-22T08:27:54.406Z,7.63
2022-10-22T08:30:21.017Z,10.40
2022-10-22T08:32:49.367Z,11.32
2022-10-22T08:35:18.528Z,7.80
2022-10-22T08:37:45.157Z,4.88
2022-10-22T08:40:11.759Z,6.80
2022-10-22T08:42:38.806Z,9.43
2022-10-22T08:45:05.605Z,10.80
2022-10-22T08:47:32.434Z,12.57
2022-10-22T08:49:59.040Z,7.60
2022-10-22T08:52:25.654Z,11.60
2022-10-22T08:54:52.269Z,11.05
2022-10-22T08:57:18.907Z,7.07
2022-10-22T08:59:45.556Z,11.83
2022-10-22T09:02:12.175Z,21.15
2022-10-22T09:04:38.782Z,12.45
2022-10-22T09:07:05.408Z,10.18
2022-10-22T09:09:32.013Z,11.57
2022-10-22T09:11:58.629Z,10.10
2022-10-22T09:14:25.460Z,15.52
2022-10-22T09:16:52.050Z,6.93
2022-10-22T09:19:18.636Z,9.82
2022-10-22T09:21:45.458Z,15.90
2022-10-22T09:24:12.049Z,16.17
2022-10-22T09:26:38.632Z,11.07
2022-10-22T09:29:05.480Z,11.63
2022-10-22T09:31:32.340Z,9.20
2022-10-22T09:33:59.166Z,13.23
2022-10-22T09:36:25.793Z,17.40
2022-10-22T09:38:52.428Z,9.07
2022-10-22T09:41:19.030Z,9.45
2022-10-22T09:43:45.635Z,9.18
2022-10-22T09:46:12.231Z,11.20
2022-10-22T09:48:38.821Z,11.73
2022-10-22T09:51:05.419Z,7.28
2022-10-22T09:53:32.024Z,13.57
2022-10-22T09:55:58.622Z,13.73
2022-10-22T09:58:25.249Z,10.02
2022-10-22T10:00:51.861Z,11.73
2022-10-22T10:03:18.732Z,9.98
2022-10-22T10:05:45.616Z,8.93
2022-10-22T10:08:12.234Z,8.85
2022-10-22T10:10:38.853Z,8.30
2022-10-22T10:13:05.476Z,10.57
2022-10-22T10:15:32.105Z,12.52
2022-10-22T10:17:58.725Z,6.35
2022-10-22T10:20:25.345Z,10.68
2022-10-22T10:22:51.941Z,12.25
2022-10-22T10:25:18.556Z,7.63
2022-10-22T10:27:45.172Z,9.18
2022-10-22T10:30:11.790Z,4.55
2022-10-22T10:32:38.892Z,6.20
2022-10-22T10:35:05.713Z,6.55
2022-10-22T10:37:32.334Z,8.37
2022-10-22T10:39:59.148Z,9.40
2022-10-22T10:42:25.957Z,6.68
2022-10-22T10:44:52.599Z,5.85
2022-10-22T10:47:19.202Z,7.40
2022-10-22T10:49:45.815Z,6.37
2022-10-22T10:52:13.173Z,5.82
2022-10-22T10:54:42.062Z,6.88
2022-10-22T10:57:08.707Z,5.22
2022-10-22T10:59:35.318Z,6.28
2022-10-22T11:02:02.140Z,5.17
2022-10-22T11:04:28.748Z,6.80
2022-10-22T11:07:05.906Z,6.45
2022-10-22T11:09:41.946Z,3.58
2022-10-22T11:12:08.674Z,5.00
2022-10-22T11:14:35.301Z,4.47
2022-10-22T11:17:01.905Z,4.93
2022-10-22T11:19:49.753Z,7.45
2022-10-22T11:22:15.112Z,8.88
2022-10-22T11:24:41.928Z,5.78
2022-10-22T11:27:08.545Z,5.30
2022-10-22T11:29:35.142Z,4.35
2022-10-22T11:32:01.762Z,6.65
2022-10-22T11:34:33.718Z,6.82
2022-10-22T11:37:01.053Z,6.07
2022-10-22T11:39:27.652Z,5.33
2022-10-22T11:41:54.255Z,4.30
2022-10-22T11:44:20.870Z,6.30
2022-10-22T11:46:47.459Z,6.18
2022-10-22T11:49:14.502Z,6.32
2022-10-22T11:51:41.098Z,4.53
2022-10-22T11:54:07.707Z,4.63
2022-10-22T11:56:34.305Z,5.50
2022-10-22T11:59:00.906Z,4.95
2022-10-22T12:01:27.574Z,5.60
2022-10-22T12:03:54.433Z,5.77
2022-10-22T12:06:21.066Z,3.53
2022-10-22T12:08:47.766Z,4.95
2022-10-22T12:11:14.569Z,4.80
2022-10-22T12:13:41.378Z,6.28
2022-10-22T12:16:10.477Z,3.60
2022-10-22T12:18:39.469Z,4.78
2022-10-22T12:21:06.090Z,3.45
2022-10-22T12:23:32.687Z,3.10
2022-10-22T12:25:59.288Z,5.22
2022-10-22T12:28:25.897Z,3.63
2022-10-22T12:30:52.714Z,3.88
2022-10-22T12:33:19.336Z,4.30
2022-10-22T12:35:46.181Z,5.65
2022-10-22T12:38:12.801Z,4.07
2022-10-22T12:40:39.860Z,3.27
2022-10-22T12:45:39.793Z,2.67
2022-10-22T12:48:06.418Z,4.00
2022-10-22T12:50:33.019Z,4.53
2022-10-22T12:52:59.628Z,3.17
2022-10-22T12:55:26.220Z,3.58
2022-10-22T12:57:52.844Z,4.30
2022-10-22T13:00:19.457Z,4.45
2022-10-22T13:02:46.065Z,4.45
2022-10-22T13:05:12.885Z,4.07
2022-10-22T13:07:39.497Z,3.40
2022-10-22T13:10:06.088Z,3.92
2022-10-22T13:12:32.687Z,3.13
2022-10-22T13:14:59.295Z,2.97
2022-10-22T13:17:25.911Z,3.87
2022-10-22T13:19:52.512Z,4.10
2022-10-22T13:22:19.323Z,4.93
2022-10-22T13:24:45.975Z,2.72
2022-10-22T13:27:12.870Z,3.45
2022-10-22T13:29:39.491Z,2.63
2022-10-22T13:32:06.089Z,3.17
2022-10-22T13:34:32.695Z,3.85
2022-10-22T13:36:59.308Z,2.70
2022-10-22T13:39:25.906Z,3.55
2022-10-22T13:41:52.736Z,3.63
2022-10-22T13:44:19.358Z,2.75
2022-10-22T13:46:45.962Z,3.95
2022-10-22T13:49:12.568Z,3.10
2022-10-22T13:51:39.188Z,4.07
2022-10-22T13:54:05.780Z,2.57
2022-10-22T13:56:32.384Z,3.47
2022-10-22T13:58:59.217Z,2.80
2022-10-22T14:01:25.831Z,3.95
2022-10-22T14:03:52.457Z,3.15
2022-10-22T14:06:19.055Z,2.90
2022-10-22T14:08:45.688Z,3.15
2022-10-22T14:11:12.305Z,4.20
2022-10-22T14:13:38.896Z,3.67
2022-10-22T14:16:05.733Z,3.20
2022-10-22T14:18:32.340Z,3.67
2022-10-22T14:20:58.938Z,4.43
2022-10-22T14:23:25.749Z,5.97
2022-10-22T14:25:52.368Z,4.45
2022-10-22T14:28:18.970Z,3.50
2022-10-22T14:30:45.570Z,4.07
2022-10-22T14:33:12.185Z,5.13
2022-10-22T14:35:38.809Z,5.13
2022-10-22T14:38:05.425Z,4.28
2022-10-22T14:40:32.257Z,4.93
2022-10-22T14:42:58.852Z,11.33
2022-10-22T14:45:25.456Z,5.47
2022-10-22T14:47:52.080Z,4.32
2022-10-22T14:50:18.707Z,4.55
2022-10-22T14:52:45.546Z,4.47
2022-10-22T14:55:12.146Z,5.03
2022-10-22T14:57:39.197Z,8.52
2022-10-22T15:00:06.010Z,5.57
2022-10-22T15:02:32.601Z,5.80
2022-10-22T15:04:59.200Z,4.72
2022-10-22T15:07:25.809Z,7.43
2022-10-22T15:09:52.641Z,6.63
2022-10-22T15:12:19.267Z,3.70
2022-10-22T15:14:45.873Z,3.30
2022-10-22T15:17:12.694Z,6.80
2022-10-22T15:19:39.533Z,11.43
2022-10-22T15:22:06.154Z,8.07
2022-10-22T15:24:32.773Z,6.28
2022-10-22T15:26:59.606Z,5.13
2022-10-22T15:29:26.233Z,6.35
2022-10-22T15:31:52.884Z,4.87
2022-10-22T15:34:19.492Z,8.38
2022-10-22T15:36:46.101Z,5.20
2022-10-22T15:39:12.692Z,5.18
2022-10-22T15:41:39.293Z,6.25
2022-10-22T15:44:06.130Z,8.50
2022-10-22T15:46:34.699Z,5.18
2022-10-22T15:49:02.172Z,7.25
2022-10-22T15:51:28.820Z,8.50
2022-10-22T15:53:55.444Z,8.18
2022-10-22T15:56:22.290Z,5.80
2022-10-22T15:58:48.884Z,8.30
2022-10-22T16:01:15.798Z,8.10
2022-10-22T16:03:42.674Z,5.85
2022-10-22T16:06:09.273Z,11.85
2022-10-22T16:08:36.399Z,7.47
2022-10-22T16:11:03.010Z,7.28
2022-10-22T16:13:29.596Z,7.38
2022-10-22T16:15:56.190Z,7.68
2022-10-22T16:18:22.796Z,5.88
2022-10-22T16:20:49.432Z,7.87
2022-10-22T16:23:16.032Z,5.93
2022-10-22T16:25:42.872Z,10.15
2022-10-22T16:28:09.496Z,8.50
2022-10-22T16:30:36.104Z,6.78
2022-10-22T16:33:03.522Z,7.80
2022-10-22T16:35:30.345Z,6.38
2022-10-22T16:37:56.957Z,11.77
2022-10-22T16:40:23.550Z,12.35
2022-10-22T16:42:50.141Z,10.85
2022-10-22T16:45:16.734Z,12.17
2022-10-22T16:47:43.471Z,13.85
2022-10-22T16:50:10.395Z,10.63
2022-10-22T16:52:37.261Z,7.57
2022-10-22T16:55:04.088Z,9.77
2022-10-22T16:57:30.816Z,7.90
2022-10-22T16:59:57.429Z,8.07
2022-10-22T17:02:24.054Z,7.70
2022-10-22T17:04:50.652Z,5.88
2022-10-22T17:07:17.269Z,8.63
2022-10-22T17:09:44.051Z,9.00
2022-10-22T17:12:10.706Z,7.95
2022-10-22T17:14:37.313Z,5.25
2022-10-22T17:17:03.939Z,5.90
2022-10-22T17:19:30.873Z,7.35
2022-10-22T17:21:57.504Z,5.50
2022-10-22T17:24:24.100Z,7.57
2022-10-22T17:26:50.735Z,6.70
2022-10-22T17:29:17.357Z,7.85
2022-10-22T17:31:43.994Z,6.22
2022-10-22T17:34:10.599Z,4.60
2022-10-22T17:36:37.494Z,6.55
2022-10-22T17:39:04.107Z,5.80
2022-10-22T17:41:30.857Z,7.43
2022-10-22T17:43:57.599Z,6.95
2022-10-22T17:46:24.201Z,5.40
2022-10-22T17:48:51.200Z,5.18
2022-10-22T17:51:17.901Z,4.95
2022-10-22T17:53:44.527Z,5.45
2022-10-22T17:56:11.137Z,6.18
2022-10-22T17:58:37.837Z,4.80
2022-10-22T18:01:04.608Z,4.43
2022-10-22T18:03:31.234Z,4.72
2022-10-22T18:05:57.848Z,5.13
2022-10-22T18:08:24.441Z,6.13
2022-10-22T18:10:51.053Z,4.63
2022-10-22T18:13:17.648Z,6.22
2022-10-22T18:15:44.267Z,3.72
2022-10-22T18:18:10.891Z,7.45
2022-10-22T18:20:37.494Z,10.45
2022-10-22T18:23:04.116Z,8.13
2022-10-22T18:25:30.735Z,6.88
2022-10-22T18:27:57.560Z,7.90
2022-10-22T18:30:24.172Z,7.13
2022-10-22T18:32:50.764Z,8.18
2022-10-22T18:35:17.381Z,6.83
2022-10-22T18:37:44.278Z,6.65
2022-10-22T18:40:14.448Z,7.40
2022-10-22T18:42:41.787Z,5.38
2022-10-22T18:45:08.621Z,6.20
2022-10-22T18:47:35.430Z,6.87
2022-10-22T18:50:02.048Z,5.00
2022-10-22T18:52:28.674Z,6.25
2022-10-22T18:54:55.297Z,6.65
2022-10-22T18:57:21.896Z,5.82
2022-10-22T18:59:48.484Z,5.20
2022-10-22T19:02:15.092Z,7.90
2022-10-22T19:04:41.694Z,5.03
2022-10-22T19:09:35.822Z,7.15
2022-10-22T19:12:02.422Z,4.40
2022-10-22T19:14:29.011Z,7.05
2022-10-22T19:16:55.655Z,4.05
2022-10-22T19:19:22.245Z,6.28
2022-10-22T19:21:48.853Z,4.72
2022-10-22T19:24:15.488Z,4.73
2022-10-22T19:26:42.304Z,6.78
2022-10-22T19:29:08.923Z,5.72
2022-10-22T19:31:35.512Z,7.47
2022-10-22T19:34:02.142Z,6.25
2022-10-22T19:36:28.777Z,5.27
2022-10-22T19:38:55.625Z,6.75
2022-10-22T19:41:22.229Z,6.05
2022-10-22T19:43:49.071Z,5.82
2022-10-22T19:46:15.692Z,4.95
2022-10-22T19:48:42.591Z,8.83
2022-10-22T19:51:09.200Z,8.48
2022-10-22T19:53:35.793Z,7.68
2022-10-22T19:56:02.384Z,7.88
2022-10-22T19:58:29.195Z,7.40
2022-10-22T20:00:55.836Z,6.03
2022-10-22T20:03:22.932Z,7.20
2022-10-22T20:05:49.549Z,7.35
2022-10-22T20:08:16.156Z,8.52
2022-10-22T20:10:42.776Z,11.85
2022-10-22T20:13:09.588Z,10.23
2022-10-22T20:15:36.207Z,9.43
2022-10-22T20:18:03.043Z,12.88
2022-10-22T20:20:29.654Z,12.48
2022-10-22T20:22:56.485Z,9.48
2022-10-22T20:25:23.097Z,9.13
2022-10-22T20:27:49.930Z,9.23
2022-10-22T20:32:48.020Z,10.85
2022-10-22T20:35:14.864Z,7.82
2022-10-22T20:37:41.481Z,9.23
2022-10-22T20:40:08.322Z,10.90
2022-10-22T20:42:34.928Z,12.15
2022-10-22T20:45:01.539Z,11.95
2022-10-22T20:47:39.136Z,9.80
2022-10-22T20:50:14.762Z,11.07
2022-10-22T20:52:41.391Z,9.90
2022-10-22T20:55:08.039Z,11.23
2022-10-22T20:57:34.699Z,15.88
2022-10-22T21:00:01.288Z,8.38
2022-10-22T21:02:27.912Z,8.27
2022-10-22T21:04:54.529Z,7.90
2022-10-22T21:07:21.125Z,8.80
2022-10-22T21:09:47.721Z,7.10
2022-10-22T21:12:14.566Z,8.23
2022-10-22T21:14:41.167Z,8.67
2022-10-22T21:17:07.762Z,6.15
2022-10-22T21:19:34.371Z,7.45
2022-10-22T21:22:00.980Z,6.47
2022-10-22T21:24:27.592Z,6.88
2022-10-22T21:26:54.206Z,7.30
2022-10-22T21:29:21.027Z,6.55
2022-10-22T21:31:47.836Z,9.00
2022-10-22T21:34:14.458Z,8.45
2022-10-22T21:36:41.146Z,6.43
2022-10-22T21:39:08.036Z,8.53
2022-10-22T21:41:34.649Z,8.23
2022-10-22T21:44:01.248Z,7.10
2022-10-22T21:46:27.866Z,6.47
2022-10-22T21:48:54.476Z,5.47
2022-10-22T21:51:21.315Z,8.10
2022-10-22T21:53:48.020Z,6.35
2022-10-22T21:56:14.656Z,6.63
2022-10-22T21:58:41.272Z,7.65
2022-10-22T22:01:07.893Z,5.43
2022-10-22T22:03:34.736Z,9.30
2022-10-22T22:06:01.353Z,6.60
2022-10-22T22:08:28.193Z,6.43
2022-10-22T22:10:54.809Z,6.50
2022-10-22T22:13:21.397Z,9.02
2022-10-22T22:15:48.242Z,8.37
2022-10-22T22:18:14.856Z,5.50
2022-10-22T22:20:41.453Z,5.18
2022-10-22T22:23:08.085Z,6.25
2022-10-22T22:25:34.677Z,5.55
2022-10-22T22:28:01.283Z,6.67
2022-10-22T22:30:27.892Z,5.68
2022-10-22T22:32:54.704Z,5.22
2022-10-22T22:35:21.302Z,5.70
2022-10-22T22:37:47.888Z,4.80
2022-10-22T22:40:14.501Z,5.30
2022-10-22T22:42:41.352Z,5.57
2022-10-22T22:45:08.185Z,5.82
2022-10-22T22:47:34.821Z,5.20
2022-10-22T22:50:01.643Z,7.88
2022-10-22T22:52:28.269Z,5.67
2022-10-22T22:54:54.898Z,7.93
2022-10-22T22:57:21.716Z,4.70
2022-10-22T22:59:48.320Z,4.70
2022-10-22T23:02:15.374Z,6.18
2022-10-22T23:04:41.994Z,7.97
2022-10-22T23:07:08.608Z,6.90
2022-10-22T23:09:35.220Z,6.65
2022-10-22T23:12:01.819Z,4.55
2022-10-22T23:14:28.442Z,4.28
2022-10-22T23:16:55.046Z,5.63
2022-10-22T23:19:21.893Z,7.35
2022-10-22T23:21:48.741Z,4.43
2022-10-22T23:24:15.354Z,7.53
2022-10-22T23:26:41.945Z,4.40
2022-10-22T23:29:08.567Z,5.10
2022-10-22T23:31:35.157Z,6.10
2022-10-22T23:34:01.744Z,4.88
2022-10-22T23:36:28.340Z,4.40
2022-10-22T23:38:55.167Z,4.18
2022-10-22T23:41:21.765Z,4.60
2022-10-22T23:43:48.389Z,4.85
2022-10-22T23:46:15.014Z,5.07
2022-10-22T23:48:41.638Z,4.90
2022-10-22T23:51:08.461Z,6.43
2022-10-22T23:53:35.308Z,4.47
2022-10-22T23:56:01.924Z,4.50
2022-10-22T23:58:28.527Z,3.50
